Time;durP1;ratioP1;P1;durP2;ratioP2;P2;SDS_P1;SDS_P2;PMS_P1;PMS_P2;Temp;Humidity;BMP_temperature;BMP_pressure;BME280_temperature;BME280_humidity;BME280_pressure;Samples;Min_cycle;Max_cycle;Signal;HPM_P1;HPM_P2
2021/10/29 00:01:34;;;;;;;25.50;14.03;;;;;;;;;;5054857;28;20239;-75
2021/10/29 00:04:38;;;;;;;63.87;14.70;;;;;;;;;;5042796;28;20189;-76
2021/10/29 00:07:42;;;;;;;20.70;13.93;;;;;;;;;;5054962;28;20199;-75
2021/10/29 00:10:47;;;;;;;18.13;13.47;;;;;;;;;;5054968;28;20223;-76
2021/10/29 00:13:51;;;;;;;17.70;13.17;;;;;;;;;;5055039;28;20203;-75
2021/10/29 00:16:55;;;;;;;20.53;13.07;;;;;;;;;;5054901;28;20201;-76
2021/10/29 00:19:59;;;;;;;23.97;13.87;;;;;;;;;;5053848;28;20219;-75
2021/10/29 00:23:03;;;;;;;25.03;13.33;;;;;;;;;;5054857;28;20211;-75
2021/10/29 00:26:07;;;;;;;27.93;13.00;;;;;;;;;;5055080;28;20191;-75
2021/10/29 00:29:11;;;;;;;29.70;13.27;;;;;;;;;;5054786;28;20192;-75
2021/10/29 00:32:15;;;;;;;16.70;12.83;;;;;;;;;;5054359;28;20227;-75
2021/10/29 00:35:20;;;;;;;23.00;14.83;;;;;;;;;;5054304;28;20208;-75
2021/10/29 00:38:25;;;;;;;27.73;14.63;;;;;;;;;;5054301;28;20191;-75
2021/10/29 00:41:30;;;;;;;30.57;14.40;;;;;;;;;;5054487;28;20223;-75
2021/10/29 00:44:34;;;;;;;19.77;14.97;;;;;;;;;;5054470;28;20195;-75
2021/10/29 00:47:38;;;;;;;32.53;15.13;;;;;;;;;;5054355;28;20195;-75
2021/10/29 00:50:43;;;;;;;25.60;14.63;;;;;;;;;;5030857;28;20227;-75
2021/10/29 00:53:47;;;;;;;43.47;16.67;;;;;;;;;;5054204;28;20184;-75
2021/10/29 00:56:51;;;;;;;28.70;14.70;;;;;;;;;;5054157;28;20713;-75
2021/10/29 00:59:55;;;;;;;24.50;14.90;;;;;;;;;;5054191;28;20183;-75
2021/10/29 01:02:59;;;;;;;38.83;15.00;;;;;;;;;;5053947;28;20191;-75
2021/10/29 01:06:04;;;;;;;23.93;15.27;;;;;;;;;;5054010;28;20192;-75
2021/10/29 01:09:08;;;;;;;29.17;16.20;;;;;;;;;;5053658;28;20204;-75
2021/10/29 01:12:12;;;;;;;50.93;15.53;;;;;;;;;;5053680;28;20590;-76
2021/10/29 01:15:16;;;;;;;35.97;14.97;;;;;;;;;;5053552;28;20213;-75
2021/10/29 01:18:21;;;;;;;26.47;14.60;;;;;;;;;;5053060;28;20614;-75
2021/10/29 01:21:25;;;;;;;35.40;16.27;;;;;;;;;;5053418;28;20228;-75
2021/10/29 01:24:29;;;;;;;31.30;15.73;;;;;;;;;;5052934;28;20180;-75
2021/10/29 01:27:33;;;;;;;35.87;16.40;;;;;;;;;;5053611;28;20203;-75
2021/10/29 01:30:39;;;;;;;37.43;15.80;;;;;;;;;;5041250;28;20227;-75
2021/10/29 01:33:44;;;;;;;35.33;15.20;;;;;;;;;;5053616;28;20674;-75
2021/10/29 01:36:49;;;;;;;21.40;14.97;;;;;;;;;;5053430;28;20233;-75
2021/10/29 01:39:54;;;;;;;32.77;15.13;;;;;;;;;;5053173;28;20568;-75
2021/10/29 01:42:58;;;;;;;18.63;14.07;;;;;;;;;;5053229;28;20207;-75
2021/10/29 01:46:02;;;;;;;28.07;14.80;;;;;;;;;;5054018;28;20559;-75
2021/10/29 01:49:06;;;;;;;31.70;14.67;;;;;;;;;;5053623;28;20192;-75
2021/10/29 01:52:10;;;;;;;37.70;15.53;;;;;;;;;;5052251;28;20240;-75
2021/10/29 01:55:15;;;;;;;34.80;16.20;;;;;;;;;;5053174;28;20180;-75
2021/10/29 01:58:20;;;;;;;27.03;15.30;;;;;;;;;;5053025;28;20180;-76
2021/10/29 02:01:25;;;;;;;24.17;15.57;;;;;;;;;;5053049;28;20222;-75
2021/10/29 02:04:29;;;;;;;19.53;14.77;;;;;;;;;;5053255;28;20195;-75
2021/10/29 02:07:33;;;;;;;22.87;15.07;;;;;;;;;;5053251;28;20652;-75
2021/10/29 02:10:38;;;;;;;27.50;15.40;;;;;;;;;;5040810;28;20223;-75
2021/10/29 02:13:43;;;;;;;21.70;15.77;;;;;;;;;;5053017;28;20191;-75
2021/10/29 02:16:47;;;;;;;31.53;15.47;;;;;;;;;;5053009;28;20215;-75
2021/10/29 02:19:52;;;;;;;23.90;15.50;;;;;;;;;;5053087;28;20191;-75
2021/10/29 02:22:56;;;;;;;33.57;15.10;;;;;;;;;;5053321;28;20195;-75
2021/10/29 02:26:00;;;;;;;20.57;16.10;;;;;;;;;;5054805;28;20654;-75
2021/10/29 02:29:04;;;;;;;29.60;16.63;;;;;;;;;;5056104;28;20203;-75
2021/10/29 02:32:09;;;;;;;27.80;16.40;;;;;;;;;;5056872;28;20223;-75
2021/10/29 02:35:13;;;;;;;27.40;16.40;;;;;;;;;;5056858;28;20188;-75
2021/10/29 02:38:17;;;;;;;52.77;16.50;;;;;;;;;;5056871;28;20532;-75
2021/10/29 02:41:21;;;;;;;26.93;16.23;;;;;;;;;;5056720;28;20584;-75
2021/10/29 02:44:25;;;;;;;23.93;17.70;;;;;;;;;;5056827;28;20199;-75
2021/10/29 02:47:30;;;;;;;25.53;16.13;;;;;;;;;;5056672;28;20180;-75
2021/10/29 02:50:35;;;;;;;38.80;16.70;;;;;;;;;;5056568;28;20602;-75
2021/10/29 02:53:39;;;;;;;29.33;17.70;;;;;;;;;;5056508;28;20210;-75
2021/10/29 02:56:44;;;;;;;26.43;16.43;;;;;;;;;;5056194;28;20212;-75
2021/10/29 02:59:48;;;;;;;26.33;18.17;;;;;;;;;;5056730;28;20180;-75
2021/10/29 03:02:52;;;;;;;22.40;17.27;;;;;;;;;;5056426;28;20191;-75
2021/10/29 03:05:56;;;;;;;24.83;17.93;;;;;;;;;;5056354;28;20646;-75
2021/10/29 03:09:00;;;;;;;29.70;18.50;;;;;;;;;;5056507;28;20189;-75
2021/10/29 03:12:05;;;;;;;34.13;19.00;;;;;;;;;;5055966;28;20231;-75
2021/10/29 03:15:11;;;;;;;73.67;19.53;;;;;;;;;;5056187;28;20184;-75
2021/10/29 03:18:17;;;;;;;34.53;18.70;;;;;;;;;;5043556;28;20188;-75
2021/10/29 03:21:21;;;;;;;44.17;19.50;;;;;;;;;;5055884;28;20215;-75
2021/10/29 03:24:25;;;;;;;60.73;18.67;;;;;;;;;;5056065;28;20201;-75
2021/10/29 03:27:29;;;;;;;35.63;18.37;;;;;;;;;;5055923;28;20209;-75
2021/10/29 03:30:33;;;;;;;26.10;19.17;;;;;;;;;;5043539;28;20188;-75
2021/10/29 03:33:39;;;;;;;26.70;18.73;;;;;;;;;;5055569;28;20191;-75
2021/10/29 03:36:48;;;;;;;64.37;20.03;;;;;;;;;;5055061;28;20216;-75
2021/10/29 03:40:02;;;;;;;45.17;21.03;;;;;;;;;;5032043;28;20187;-75
2021/10/29 03:46:23;;;;;;;29.47;21.40;;;;;;;;;;5055840;28;20203;-75
2021/10/29 03:52:36;;;;;;;42.43;20.37;;;;;;;;;;5055325;28;20232;-75
2021/10/29 03:55:41;;;;;;;35.77;21.60;;;;;;;;;;5055083;28;20191;-75
2021/10/29 03:58:48;;;;;;;67.77;21.47;;;;;;;;;;5043087;28;20193;-75
2021/10/29 04:01:52;;;;;;;83.10;20.70;;;;;;;;;;5055045;28;20231;-75
2021/10/29 04:04:56;;;;;;;49.67;20.00;;;;;;;;;;5055275;28;20541;-75
2021/10/29 04:08:01;;;;;;;36.90;21.07;;;;;;;;;;5055436;28;20177;-75
2021/10/29 04:11:06;;;;;;;36.40;20.63;;;;;;;;;;5055380;28;20231;-74
2021/10/29 04:14:11;;;;;;;42.00;20.20;;;;;;;;;;5055638;28;20195;-75
2021/10/29 04:17:15;;;;;;;51.43;22.20;;;;;;;;;;5054654;28;20232;-75
2021/10/29 04:20:19;;;;;;;35.13;22.70;;;;;;;;;;5042556;28;20223;-75
2021/10/29 04:23:24;;;;;;;52.40;21.43;;;;;;;;;;5054853;28;20204;-75
2021/10/29 04:26:28;;;;;;;48.40;21.97;;;;;;;;;;5055058;28;20195;-75
2021/10/29 04:29:37;;;;;;;49.67;22.93;;;;;;;;;;5054797;28;20192;-75
2021/10/29 04:32:41;;;;;;;32.13;21.80;;;;;;;;;;5054680;28;20547;-75
2021/10/29 04:35:48;;;;;;;58.60;22.80;;;;;;;;;;5042429;28;20265;-75
2021/10/29 04:38:52;;;;;;;42.23;23.90;;;;;;;;;;5054552;28;20574;-75
2021/10/29 04:41:56;;;;;;;38.13;22.67;;;;;;;;;;5054484;28;20227;-75
2021/10/29 04:45:00;;;;;;;48.43;23.03;;;;;;;;;;5055042;28;20191;-75
2021/10/29 04:48:05;;;;;;;34.00;21.87;;;;;;;;;;5054216;28;20183;-75
2021/10/29 04:51:09;;;;;;;35.60;22.60;;;;;;;;;;5054271;28;20223;-75
2021/10/29 04:54:13;;;;;;;59.30;23.73;;;;;;;;;;5054198;28;20662;-75
2021/10/29 04:57:17;;;;;;;30.70;22.03;;;;;;;;;;5054160;28;20203;-75
2021/10/29 05:00:23;;;;;;;39.67;22.90;;;;;;;;;;5054647;28;20551;-75
2021/10/29 05:03:27;;;;;;;34.27;22.03;;;;;;;;;;5053967;28;20191;-75
2021/10/29 05:06:31;;;;;;;38.63;21.33;;;;;;;;;;5054021;28;20207;-76
2021/10/29 05:09:35;;;;;;;43.43;23.93;;;;;;;;;;5053271;28;20220;-75
2021/10/29 05:12:40;;;;;;;31.87;22.03;;;;;;;;;;5054000;28;20193;-75
2021/10/29 05:15:44;;;;;;;40.20;23.93;;;;;;;;;;5052882;28;20655;-75
2021/10/29 05:18:48;;;;;;;31.13;21.80;;;;;;;;;;5053582;28;20203;-75
2021/10/29 05:21:53;;;;;;;35.23;23.87;;;;;;;;;;5052859;28;20222;-75
2021/10/29 05:24:56;;;;;;;38.83;25.37;;;;;;;;;;5052911;28;20686;-75
2021/10/29 05:28:01;;;;;;;39.47;22.33;;;;;;;;;;5053446;28;20203;-75
2021/10/29 05:31:05;;;;;;;30.90;21.17;;;;;;;;;;5053898;28;20223;-75
2021/10/29 05:34:09;;;;;;;40.37;26.93;;;;;;;;;;5053398;28;20195;-76
2021/10/29 05:37:13;;;;;;;128.67;58.33;;;;;;;;;;5053174;28;20240;-75
2021/10/29 05:40:17;;;;;;;158.60;66.47;;;;;;;;;;5053484;28;20689;-75
2021/10/29 05:43:21;;;;;;;140.37;68.60;;;;;;;;;;5053504;28;20207;-75
2021/10/29 05:46:29;;;;;;;90.30;29.20;;;;;;;;;;5041392;28;20196;-75
2021/10/29 05:49:33;;;;;;;34.50;23.23;;;;;;;;;;5040904;28;20191;-75
2021/10/29 05:52:41;;;;;;;44.93;23.07;;;;;;;;;;5053563;28;20686;-75
2021/10/29 05:55:45;;;;;;;31.03;21.47;;;;;;;;;;5053503;28;20662;-75
2021/10/29 05:58:49;;;;;;;65.17;22.40;;;;;;;;;;5053525;28;20204;-75
2021/10/29 06:01:54;;;;;;;33.90;23.77;;;;;;;;;;5052048;28;20235;-75
2021/10/29 06:04:58;;;;;;;51.47;23.60;;;;;;;;;;5053423;28;20188;-75
2021/10/29 06:08:02;;;;;;;36.33;23.70;;;;;;;;;;5053154;28;20188;-74
2021/10/29 06:11:06;;;;;;;69.87;25.07;;;;;;;;;;5052747;28;20226;-75
2021/10/29 06:14:11;;;;;;;92.03;24.17;;;;;;;;;;5052811;28;20192;-74
2021/10/29 06:17:18;;;;;;;106.03;23.13;;;;;;;;;;5052839;28;20227;-74
2021/10/29 06:20:22;;;;;;;33.33;23.60;;;;;;;;;;5052607;28;20207;-75
2021/10/29 06:23:37;;;;;;;68.47;22.50;;;;;;;;;;5052713;28;20207;-74
2021/10/29 06:30:05;;;;;;;35.83;21.20;;;;;;;;;;5052740;28;20551;-75
2021/10/29 06:33:10;;;;;;;36.43;22.07;;;;;;;;;;5052885;28;20205;-75
2021/10/29 06:36:15;;;;;;;64.00;21.27;;;;;;;;;;5052929;28;20663;-74
2021/10/29 06:39:20;;;;;;;68.80;20.63;;;;;;;;;;5053030;28;20541;-74
2021/10/29 06:42:30;;;;;;;29.33;20.77;;;;;;;;;;5052556;28;20230;-76
2021/10/29 06:48:50;;;;;;;29.70;19.13;;;;;;;;;;5052763;28;20512;-75
2021/10/29 07:42:14;;;;;;;42.80;18.57;;;;;;;;;;5055664;28;20223;-73
2021/10/29 07:45:20;;;;;;;26.20;17.67;;;;;;;;;;5055738;28;20188;-73
2021/10/29 07:48:25;;;;;;;25.47;17.63;;;;;;;;;;5055959;28;20201;-73
2021/10/29 07:51:29;;;;;;;42.10;17.47;;;;;;;;;;5055233;28;20219;-73
2021/10/29 07:54:33;;;;;;;24.30;17.03;;;;;;;;;;5055697;28;20662;-73
2021/10/29 07:57:39;;;;;;;56.13;18.93;;;;;;;;;;5055505;28;20246;-72
2021/10/29 08:00:44;;;;;;;24.63;17.27;;;;;;;;;;5055911;28;20226;-73
2021/10/29 08:03:48;;;;;;;29.33;19.17;;;;;;;;;;5055177;28;20191;-73
2021/10/29 08:06:52;;;;;;;70.70;19.77;;;;;;;;;;5055628;28;20180;-73
2021/10/29 08:10:00;;;;;;;27.53;18.00;;;;;;;;;;5056177;28;20187;-73
2021/10/29 08:13:04;;;;;;;49.47;18.63;;;;;;;;;;5055389;28;20183;-74
2021/10/29 08:16:08;;;;;;;31.53;19.53;;;;;;;;;;5043240;28;20196;-75
2021/10/29 08:19:13;;;;;;;27.83;17.67;;;;;;;;;;5055206;28;20712;-75
2021/10/29 08:22:16;;;;;;;23.93;16.93;;;;;;;;;;5054988;28;20740;-74
2021/10/29 08:25:20;;;;;;;30.10;18.20;;;;;;;;;;5054675;28;20200;-74
2021/10/29 08:28:24;;;;;;;25.67;18.70;;;;;;;;;;5054461;28;20204;-75
2021/10/29 08:31:29;;;;;;;29.43;17.80;;;;;;;;;;5054379;28;20227;-75
2021/10/29 08:34:33;;;;;;;23.40;17.73;;;;;;;;;;5054956;28;20212;-75
2021/10/29 08:37:40;;;;;;;26.17;17.27;;;;;;;;;;5054571;28;20228;-75
2021/10/29 08:40:45;;;;;;;23.47;17.37;;;;;;;;;;5054570;28;20227;-74
2021/10/29 08:43:49;;;;;;;29.83;17.83;;;;;;;;;;5042226;28;20663;-74
2021/10/29 08:46:53;;;;;;;32.10;18.20;;;;;;;;;;5054783;28;20658;-74
2021/10/29 08:49:57;;;;;;;24.67;16.67;;;;;;;;;;5054717;28;20256;-75
2021/10/29 08:53:02;;;;;;;27.57;17.97;;;;;;;;;;5054073;28;20213;-74
2021/10/29 08:56:07;;;;;;;25.03;17.80;;;;;;;;;;5054348;28;20582;-74
2021/10/29 08:59:14;;;;;;;30.10;18.37;;;;;;;;;;5053619;28;20693;-74
2021/10/29 09:02:33;;;;;;;32.17;18.47;;;;;;;;;;5041682;28;20219;-74
2021/10/29 09:05:55;;;;;;;37.80;18.30;;;;;;;;;;5054141;28;20567;-74
2021/10/29 09:16:11;;;;;;;28.33;21.00;;;;;;;;;;5054085;28;20185;-75
2021/10/29 09:16:12;;;;;;;44.70;18.13;;;;;;;;;;5054229;28;20721;-75
2021/10/29 09:33:23;;;;;;;26.07;16.47;;;;;;;;;;5053685;28;20199;-75
2021/10/29 09:36:35;;;;;;;22.77;16.50;;;;;;;;;;5052883;28;20211;-75
2021/10/29 09:39:38;;;;;;;23.30;16.20;;;;;;;;;;5053344;28;20574;-75
2021/10/29 09:42:59;;;;;;;23.17;15.90;;;;;;;;;;5052967;28;20184;-75
2021/10/29 09:46:06;;;;;;;22.63;16.47;;;;;;;;;;5053193;28;20184;-74
2021/10/29 09:49:14;;;;;;;20.47;15.60;;;;;;;;;;5053120;28;20188;-72
2021/10/29 09:58:52;;;;;;;22.67;16.90;;;;;;;;;;5053084;28;20549;-72
2021/10/29 10:01:57;;;;;;;24.20;16.87;;;;;;;;;;5053375;28;20223;-72
2021/10/29 10:05:05;;;;;;;21.57;15.67;;;;;;;;;;5052858;28;20557;-72
2021/10/29 10:08:11;;;;;;;22.23;16.53;;;;;;;;;;5052902;28;20551;-73
2021/10/29 10:11:17;;;;;;;25.07;17.43;;;;;;;;;;5053205;28;20614;-72
2021/10/29 10:14:23;;;;;;;25.40;17.50;;;;;;;;;;5053388;28;20188;-72
2021/10/29 10:17:28;;;;;;;24.30;17.03;;;;;;;;;;5053211;28;20187;-72
2021/10/29 10:20:33;;;;;;;26.93;17.80;;;;;;;;;;5053006;28;20193;-72
2021/10/29 10:23:41;;;;;;;22.07;16.40;;;;;;;;;;5052990;28;20206;-72
2021/10/29 10:27:16;;;;;;;21.07;15.77;;;;;;;;;;5053010;28;20211;-72
2021/10/29 10:30:51;;;;;;;24.30;16.43;;;;;;;;;;5053000;28;20187;-72
2021/10/29 10:41:08;;;;;;;31.80;19.50;;;;;;;;;;5052787;28;20234;-72
2021/10/29 10:47:23;;;;;;;27.87;18.37;;;;;;;;;;5055398;28;20183;-72
2021/10/29 10:50:34;;;;;;;27.43;18.67;;;;;;;;;;5056396;28;20193;-72
2021/10/29 10:53:45;;;;;;;28.17;19.23;;;;;;;;;;5056645;28;20199;-72
2021/10/29 11:00:35;;;;;;;23.63;16.90;;;;;;;;;;5056576;28;20201;-72
2021/10/29 11:11:15;;;;;;;23.00;15.73;;;;;;;;;;5056269;28;20223;-72
2021/10/29 11:14:33;;;;;;;23.83;16.90;;;;;;;;;;5055999;28;20184;-72
2021/10/29 11:17:50;;;;;;;22.97;16.20;;;;;;;;;;5056085;28;20195;-72
2021/10/29 11:21:03;;;;;;;24.73;16.40;;;;;;;;;;5056055;28;20227;-73
2021/10/29 11:24:12;;;;;;;44.83;28.90;;;;;;;;;;5056306;28;20647;-72
2021/10/29 11:27:18;;;;;;;29.37;20.43;;;;;;;;;;5055950;28;20570;-73
2021/10/29 11:30:23;;;;;;;25.17;18.00;;;;;;;;;;5043925;28;20188;-73
2021/10/29 11:33:28;;;;;;;24.23;17.27;;;;;;;;;;5055732;28;20187;-72
2021/10/29 11:36:35;;;;;;;22.67;17.10;;;;;;;;;;5055896;28;20539;-73
2021/10/29 11:39:39;;;;;;;24.33;17.77;;;;;;;;;;5055891;28;20220;-73
2021/10/29 11:42:53;;;;;;;25.70;17.03;;;;;;;;;;5054963;28;20184;-72
2021/10/29 11:46:04;;;;;;;23.53;16.80;;;;;;;;;;5056011;28;20192;-73
2021/10/29 11:49:19;;;;;;;28.93;17.33;;;;;;;;;;5055438;28;20177;-73
2021/10/29 11:52:23;;;;;;;22.07;16.00;;;;;;;;;;5055749;28;20229;-72
2021/10/29 11:55:41;;;;;;;26.87;17.87;;;;;;;;;;5055256;28;20687;-72
2021/10/29 11:58:53;;;;;;;22.77;17.43;;;;;;;;;;5054655;28;20227;-72
2021/10/29 12:08:28;;;;;;;54.47;33.87;;;;;;;;;;5052452;28;20188;-71
2021/10/29 12:11:35;;;;;;;26.50;19.20;;;;;;;;;;5051076;28;20230;-72
2021/10/29 12:14:42;;;;;;;24.70;18.70;;;;;;;;;;5051149;28;20211;-72
2021/10/29 12:20:54;;;;;;;23.57;16.87;;;;;;;;;;5050704;28;20223;-72
2021/10/29 12:24:02;;;;;;;26.53;17.30;;;;;;;;;;5051011;28;20393;-72
2021/10/29 12:27:17;;;;;;;24.43;17.93;;;;;;;;;;5050856;28;20215;-72
2021/10/29 12:53:57;;;;;;;32.57;20.83;;;;;;;;;;5050400;28;20676;-72
2021/10/29 13:03:54;;;;;;;44.53;26.27;;;;;;;;;;5050212;28;20197;-72
2021/10/29 13:06:58;;;;;;;30.50;20.53;;;;;;;;;;5050284;28;20207;-72
2021/10/29 13:10:08;;;;;;;27.93;18.30;;;;;;;;;;5049658;28;20192;-72
2021/10/29 13:13:18;;;;;;;24.67;18.13;;;;;;;;;;5039363;28;20191;-71
2021/10/29 13:16:23;;;;;;;26.97;19.13;;;;;;;;;;5053988;28;20199;-72
2021/10/29 13:19:36;;;;;;;28.43;18.70;;;;;;;;;;5053606;28;20219;-72
2021/10/29 13:23:11;;;;;;;28.20;20.30;;;;;;;;;;5055226;28;20219;-72
2021/10/29 13:26:46;;;;;;;27.80;18.90;;;;;;;;;;5054085;28;20547;-72
2021/10/29 13:36:33;;;;;;;27.30;17.70;;;;;;;;;;5053810;28;20192;-72
2021/10/29 14:32:33;;;;;;;27.00;19.57;;;;;;;;;;5056865;28;20617;-72
2021/10/29 14:35:42;;;;;;;26.73;19.37;;;;;;;;;;5038190;28;20204;-72
2021/10/29 15:01:54;;;;;;;804.53;481.63;;;;;;;;;;5036528;28;20224;-73
2021/10/29 15:31:13;;;;;;;22.50;16.67;;;;;;;;;;5036036;28;20734;-74
2021/10/29 15:44:16;;;;;;;22.20;16.80;;;;;;;;;;5032138;28;20201;-72
2021/10/29 15:50:44;;;;;;;23.67;15.80;;;;;;;;;;5031246;28;20574;-74
2021/10/29 15:53:50;;;;;;;28.13;18.80;;;;;;;;;;5041407;28;20198;-72
2021/10/29 15:56:58;;;;;;;23.93;16.80;;;;;;;;;;5031923;28;20677;-73
2021/10/29 16:03:28;;;;;;;41.73;27.17;;;;;;;;;;5050634;28;20199;-73
2021/10/29 16:20:04;;;;;;;26.47;17.80;;;;;;;;;;5044128;28;21071;-74
2021/10/29 16:23:10;;;;;;;28.73;18.63;;;;;;;;;;5031458;28;20180;-72
2021/10/29 16:26:17;;;;;;;28.43;19.67;;;;;;;;;;5038916;28;20204;-73
2021/10/29 16:29:24;;;;;;;29.77;20.37;;;;;;;;;;5050935;28;20560;-74
2021/10/29 16:32:50;;;;;;;28.90;19.73;;;;;;;;;;5030944;28;20221;-73
2021/10/29 16:35:53;;;;;;;30.33;19.43;;;;;;;;;;5043244;28;20184;-74
2021/10/29 16:38:57;;;;;;;27.87;18.63;;;;;;;;;;5047962;28;20215;-74
2021/10/29 16:42:04;;;;;;;34.17;21.77;;;;;;;;;;5050791;28;20238;-74
2021/10/29 16:45:10;;;;;;;31.57;20.10;;;;;;;;;;5050243;28;20217;-73
2021/10/29 16:48:18;;;;;;;32.10;20.97;;;;;;;;;;5043183;28;20209;-74
2021/10/29 16:51:24;;;;;;;30.90;21.13;;;;;;;;;;5030399;28;20233;-74
2021/10/29 16:54:28;;;;;;;31.70;20.83;;;;;;;;;;5030665;28;20212;-74
2021/10/29 16:57:33;;;;;;;30.70;19.97;;;;;;;;;;5036959;28;20205;-73
2021/10/29 17:00:38;;;;;;;34.20;22.87;;;;;;;;;;5038336;28;20258;-74
2021/10/29 17:03:42;;;;;;;32.60;21.53;;;;;;;;;;5030919;28;20189;-73
2021/10/29 17:06:46;;;;;;;33.00;22.17;;;;;;;;;;5030681;28;20192;-74
2021/10/29 17:09:52;;;;;;;37.00;23.37;;;;;;;;;;5050402;28;20193;-73
2021/10/29 17:12:58;;;;;;;395.43;181.13;;;;;;;;;;5050507;28;20192;-73
2021/10/29 17:16:02;;;;;;;48.30;28.27;;;;;;;;;;5050112;28;20838;-73
2021/10/29 17:19:07;;;;;;;37.47;23.47;;;;;;;;;;5040606;28;20203;-73
2021/10/29 17:22:11;;;;;;;37.30;23.30;;;;;;;;;;5041294;28;20235;-73
2021/10/29 17:25:15;;;;;;;37.37;23.67;;;;;;;;;;5041173;28;20201;-73
2021/10/29 17:28:19;;;;;;;34.37;21.90;;;;;;;;;;5030268;28;20225;-73
2021/10/29 17:31:24;;;;;;;41.37;26.60;;;;;;;;;;5042163;28;20228;-73
2021/10/29 17:34:28;;;;;;;40.83;22.00;;;;;;;;;;5031436;28;20185;-73
2021/10/29 17:37:32;;;;;;;36.87;22.67;;;;;;;;;;5030636;28;20188;-73
2021/10/29 17:40:36;;;;;;;36.07;23.60;;;;;;;;;;5048317;28;20246;-73
2021/10/29 17:43:41;;;;;;;36.87;22.63;;;;;;;;;;5043225;28;20575;-73
2021/10/29 17:46:45;;;;;;;39.03;23.13;;;;;;;;;;5048948;28;20208;-73
2021/10/29 17:49:53;;;;;;;36.87;23.00;;;;;;;;;;5049364;28;20553;-73
2021/10/29 17:52:58;;;;;;;36.27;23.03;;;;;;;;;;5049162;28;20674;-73
2021/10/29 17:56:04;;;;;;;34.03;21.40;;;;;;;;;;5048763;28;20203;-73
2021/10/29 17:59:08;;;;;;;33.07;21.47;;;;;;;;;;5036708;28;20215;-73
2021/10/29 18:02:20;;;;;;;35.23;21.47;;;;;;;;;;5029024;28;20785;-73
2021/10/29 18:05:26;;;;;;;35.03;21.73;;;;;;;;;;5026133;28;20199;-73
2021/10/29 18:08:40;;;;;;;37.93;23.73;;;;;;;;;;5029647;28;20184;-73
2021/10/29 18:11:44;;;;;;;38.13;23.80;;;;;;;;;;5029401;28;20733;-73
2021/10/29 18:14:49;;;;;;;39.23;23.17;;;;;;;;;;5033103;28;20195;-73
2021/10/29 18:17:53;;;;;;;41.20;25.43;;;;;;;;;;5049317;28;20195;-73
2021/10/29 18:21:05;;;;;;;37.30;24.73;;;;;;;;;;5045862;28;20232;-73
2021/10/29 18:24:12;;;;;;;40.23;24.37;;;;;;;;;;5029253;28;20192;-73
2021/10/29 18:27:18;;;;;;;41.73;25.20;;;;;;;;;;5028795;28;20781;-73
2021/10/29 18:30:25;;;;;;;41.53;24.93;;;;;;;;;;5029098;28;20184;-73
2021/10/29 18:33:30;;;;;;;36.43;23.00;;;;;;;;;;5029017;28;20211;-73
2021/10/29 18:36:34;;;;;;;38.53;23.17;;;;;;;;;;5045369;28;20216;-73
2021/10/29 18:39:38;;;;;;;35.87;21.53;;;;;;;;;;5048760;28;20270;-73
2021/10/29 18:42:42;;;;;;;38.50;23.17;;;;;;;;;;5048935;28;20185;-73
2021/10/29 18:45:46;;;;;;;39.50;23.77;;;;;;;;;;5048329;28;20270;-73
2021/10/29 18:48:51;;;;;;;35.63;22.53;;;;;;;;;;5049398;28;20203;-73
2021/10/29 18:51:55;;;;;;;35.37;22.27;;;;;;;;;;5049041;28;20227;-73
2021/10/29 18:54:59;;;;;;;36.03;21.53;;;;;;;;;;5043744;28;20208;-73
2021/10/29 18:58:03;;;;;;;37.17;22.43;;;;;;;;;;5017106;28;20260;-73
2021/10/29 19:01:08;;;;;;;35.33;22.50;;;;;;;;;;5029248;28;20232;-73
2021/10/29 19:04:12;;;;;;;37.07;22.53;;;;;;;;;;5029223;28;20192;-73
2021/10/29 19:07:18;;;;;;;36.03;21.77;;;;;;;;;;5029970;28;20239;-73
2021/10/29 19:10:22;;;;;;;44.63;24.17;;;;;;;;;;5033338;28;20212;-73
2021/10/29 19:13:27;;;;;;;39.37;23.73;;;;;;;;;;5032484;28;20211;-73
2021/10/29 19:16:31;;;;;;;43.67;25.27;;;;;;;;;;5050846;28;20609;-73
2021/10/29 19:19:36;;;;;;;42.63;25.23;;;;;;;;;;5052299;28;20191;-73
2021/10/29 19:22:40;;;;;;;43.40;24.00;;;;;;;;;;5052633;28;20219;-73
2021/10/29 19:25:44;;;;;;;35.47;22.70;;;;;;;;;;5038782;28;20666;-73
2021/10/29 19:28:49;;;;;;;36.07;22.23;;;;;;;;;;5008983;28;20215;-73
2021/10/29 19:31:53;;;;;;;41.07;24.67;;;;;;;;;;5034738;28;20215;-73
2021/10/29 19:34:59;;;;;;;34.03;22.00;;;;;;;;;;5032310;28;20272;-73
2021/10/29 19:38:11;;;;;;;39.93;23.40;;;;;;;;;;5043276;28;20199;-72
2021/10/29 19:41:15;;;;;;;37.77;22.20;;;;;;;;;;5051899;28;20235;-73
2021/10/29 19:44:19;;;;;;;36.50;21.87;;;;;;;;;;5038296;28;20210;-73
2021/10/29 19:47:23;;;;;;;38.10;22.63;;;;;;;;;;5050369;28;20199;-73
2021/10/29 19:50:28;;;;;;;66.33;22.63;;;;;;;;;;5031635;28;20209;-73
2021/10/29 19:53:34;;;;;;;36.83;22.47;;;;;;;;;;5022262;28;20204;-72
2021/10/29 19:56:38;;;;;;;38.57;22.80;;;;;;;;;;5051821;28;20275;-73
2021/10/29 19:59:42;;;;;;;33.80;20.47;;;;;;;;;;5050057;28;20211;-73
2021/10/29 20:02:48;;;;;;;35.17;21.17;;;;;;;;;;5038941;28;20248;-73
2021/10/29 20:05:52;;;;;;;37.43;20.63;;;;;;;;;;5035063;28;20208;-73
2021/10/29 20:08:56;;;;;;;34.50;21.37;;;;;;;;;;5038923;28;20564;-73
2021/10/29 20:12:01;;;;;;;38.13;20.47;;;;;;;;;;5034531;28;20223;-73
2021/10/29 20:15:08;;;;;;;37.63;22.07;;;;;;;;;;5030515;28;20560;-73
2021/10/29 20:18:13;;;;;;;31.90;19.60;;;;;;;;;;5042554;28;20208;-73
2021/10/29 20:21:18;;;;;;;84.00;23.50;;;;;;;;;;5030489;28;20235;-73
2021/10/29 20:24:23;;;;;;;45.97;22.00;;;;;;;;;;5030574;28;20194;-72
2021/10/29 20:27:27;;;;;;;36.97;22.60;;;;;;;;;;5050972;28;20211;-73
2021/10/29 20:30:31;;;;;;;37.13;22.40;;;;;;;;;;5050880;28;20207;-72
2021/10/29 20:33:36;;;;;;;36.10;22.53;;;;;;;;;;5014480;28;20199;-72
2021/10/29 20:36:40;;;;;;;39.57;21.70;;;;;;;;;;5050152;28;20190;-73
2021/10/29 20:39:45;;;;;;;39.37;22.27;;;;;;;;;;5032304;28;20211;-72
2021/10/29 20:42:49;;;;;;;36.63;21.73;;;;;;;;;;5018595;28;20672;-73
2021/10/29 20:45:54;;;;;;;37.80;22.67;;;;;;;;;;5042167;28;20677;-73
2021/10/29 20:48:58;;;;;;;37.70;22.53;;;;;;;;;;5041767;28;20563;-73
2021/10/29 20:52:03;;;;;;;45.13;22.20;;;;;;;;;;5030673;28;20224;-72
2021/10/29 20:55:08;;;;;;;43.40;20.80;;;;;;;;;;5022422;28;20209;-73
2021/10/29 20:58:12;;;;;;;48.77;19.57;;;;;;;;;;5007520;28;20775;-73
2021/10/29 21:01:17;;;;;;;31.00;17.47;;;;;;;;;;5030321;28;20224;-72
2021/10/29 21:04:21;;;;;;;33.00;19.20;;;;;;;;;;5006998;28;20563;-72
2021/10/29 21:07:25;;;;;;;45.37;18.50;;;;;;;;;;5030365;28;20216;-72
2021/10/29 21:10:29;;;;;;;32.37;18.47;;;;;;;;;;5017934;28;20197;-72
2021/10/29 21:13:34;;;;;;;34.67;18.13;;;;;;;;;;5018192;28;20217;-72
2021/10/29 21:16:39;;;;;;;37.07;19.40;;;;;;;;;;5030475;28;20199;-73
2021/10/29 21:19:44;;;;;;;33.00;18.90;;;;;;;;;;5030204;28;20209;-71
2021/10/29 21:22:49;;;;;;;39.40;19.07;;;;;;;;;;5030041;28;20220;-74
2021/10/29 21:25:53;;;;;;;26.23;16.93;;;;;;;;;;5038586;28;20211;-73
2021/10/29 21:28:58;;;;;;;25.83;17.30;;;;;;;;;;5029942;28;20217;-73
2021/10/29 21:32:03;;;;;;;32.03;16.33;;;;;;;;;;5028082;28;20225;-72
2021/10/29 21:35:08;;;;;;;55.23;16.13;;;;;;;;;;5019166;28;20587;-74
2021/10/29 21:38:13;;;;;;;33.57;16.53;;;;;;;;;;5029493;28;20215;-73
2021/10/29 21:41:18;;;;;;;24.47;16.20;;;;;;;;;;5006316;28;20243;-73
2021/10/29 21:44:23;;;;;;;24.30;16.50;;;;;;;;;;5030734;28;20212;-73
2021/10/29 21:47:27;;;;;;;61.00;17.10;;;;;;;;;;5029704;28;20198;-73
2021/10/29 21:50:31;;;;;;;29.87;17.63;;;;;;;;;;5029267;28;20216;-72
2021/10/29 21:53:35;;;;;;;30.10;17.70;;;;;;;;;;5037842;28;20199;-72
2021/10/29 21:56:40;;;;;;;28.00;18.47;;;;;;;;;;5033268;28;20224;-72
2021/10/29 21:59:46;;;;;;;39.63;18.17;;;;;;;;;;5018532;28;20191;-72
2021/10/29 22:02:50;;;;;;;23.63;16.37;;;;;;;;;;5048800;28;20218;-72
2021/10/29 22:05:54;;;;;;;24.10;16.40;;;;;;;;;;5049240;28;20213;-72
2021/10/29 22:08:58;;;;;;;22.50;14.87;;;;;;;;;;5036380;28;20200;-72
2021/10/29 22:12:03;;;;;;;24.57;16.27;;;;;;;;;;5036773;28;20220;-72
2021/10/29 22:15:07;;;;;;;26.77;14.90;;;;;;;;;;5044406;23;20248;-72
2021/10/29 22:18:12;;;;;;;35.53;14.23;;;;;;;;;;5048428;28;20206;-72
2021/10/29 22:21:16;;;;;;;45.67;16.03;;;;;;;;;;5033433;28;20237;-72
2021/10/29 22:24:21;;;;;;;19.37;14.07;;;;;;;;;;5032052;28;20223;-72
2021/10/29 22:27:25;;;;;;;34.27;14.80;;;;;;;;;;5051961;28;20221;-72
2021/10/29 22:30:29;;;;;;;41.67;15.40;;;;;;;;;;5052626;28;20642;-72
2021/10/29 22:33:33;;;;;;;22.50;16.10;;;;;;;;;;5044868;28;20200;-72
2021/10/29 22:36:37;;;;;;;29.17;15.33;;;;;;;;;;5049825;28;20659;-72
2021/10/29 22:39:41;;;;;;;20.40;14.10;;;;;;;;;;5021106;28;20184;-72
2021/10/29 22:42:45;;;;;;;41.90;14.93;;;;;;;;;;5044415;28;20578;-72
2021/10/29 22:45:50;;;;;;;74.03;14.80;;;;;;;;;;5055535;28;20310;-72
2021/10/29 22:48:54;;;;;;;19.53;13.87;;;;;;;;;;5040465;28;20199;-72